Texas — KTEO — position and weather

sailwx.info

Track history (hours):
 
Tides and Currents Weather Stations Pressure Air Temp Water Temp Dewpoint Dewpoint Depression Visibility Wind Speed Wind Dir Waves Ship Positions

Texas

Owner: Crowley Petroleum Services, Inc., Jacksonville, FL. More information available from US FCC via Universal Licensing System and Coast Guard Vessel Documentation Center.

Last reported at 2018-Jun-20 22:20 UTC. Time now 2018-Jun-20 22:44 UTC.
Position N 26°06' W 080°07'.

Length 183 m; draft 8.5 m.

Type: Tanker. MMSI: 369037000.

Date/timePositionNaut miles runAvg speedWind from/ knotsBaromVisibWave heightAir tempDewpointWater temp
2018-Jun-20 22:20N 26°06' W 080°07'0 0.0
2018-Jun-20 21:53N 26°06' W 080°07'0 0.0
2018-Jun-20 21:23N 26°06' W 080°07'0 0.0
2018-Jun-20 20:53N 26°06' W 080°07'0 0.0
2018-Jun-20 20:23N 26°06' W 080°07'0 0.0
2018-Jun-20 19:53N 26°06' W 080°07'0 0.0
2018-Jun-20 19:23N 26°06' W 080°07'0 0.0
2018-Jun-20 18:53N 26°06' W 080°07'0 0.0
2018-Jun-20 18:26N 26°06' W 080°07'0 0.0
2018-Jun-20 17:56N 26°06' W 080°07'0 0.0
2018-Jun-20 17:26N 26°06' W 080°07'0 0.0
2018-Jun-20 16:59N 26°06' W 080°07'0 0.0
2018-Jun-20 16:26N 26°06' W 080°07'0 0.0
2018-Jun-20 15:59N 26°06' W 080°07'0 0.0
2018-Jun-20 15:29N 26°06' W 080°07'0 0.0
2018-Jun-20 14:59N 26°06' W 080°07'0 0.0
2018-Jun-20 14:26N 26°06' W 080°07'0 0.0
2018-Jun-20 13:59N 26°06' W 080°07'0 0.0
2018-Jun-20 13:29N 26°06' W 080°07'0 0.0
2018-Jun-20 12:59N 26°06' W 080°07'0 0.0
2018-Jun-20 12:26N 26°06' W 080°07'0 0.0
2018-Jun-20 11:59N 26°06' W 080°07'0 0.0
2018-Jun-20 11:29N 26°06' W 080°07'0 0.0
2018-Jun-20 10:59N 26°06' W 080°07'0 0.0
2018-Jun-20 10:29N 26°06' W 080°07'0 0.0
2018-Jun-20 09:50N 26°06' W 080°07'0 0.0
2018-Jun-20 09:29N 26°06' W 080°07'0 0.0
2018-Jun-20 08:50N 26°06' W 080°07'0 0.0
2018-Jun-20 08:20N 26°06' W 080°07'0 0.0
2018-Jun-20 07:50N 26°06' W 080°07'0 0.0
2018-Jun-20 07:23N 26°06' W 080°07'0 0.0
2018-Jun-20 06:53N 26°06' W 080°07'0 0.0
2018-Jun-20 06:23N 26°06' W 080°07'0 0.0
2018-Jun-20 05:53N 26°06' W 080°07'0 0.0
2018-Jun-20 05:23N 26°06' W 080°07'0 0.0
2018-Jun-20 04:53N 26°06' W 080°07'0 0.0
2018-Jun-20 04:23N 26°06' W 080°07'0 0.0
2018-Jun-20 03:56N 26°06' W 080°07'0 0.0
2018-Jun-20 03:26N 26°06' W 080°07'0 0.0
2018-Jun-20 02:56N 26°06' W 080°07'0 0.0
2018-Jun-20 02:23N 26°06' W 080°07'0 0.0
2018-Jun-20 01:56N 26°06' W 080°07'0 0.0
2018-Jun-20 01:29N 26°06' W 080°07'0 0.0
2018-Jun-20 00:56N 26°06' W 080°07'0 0.0
2018-Jun-20 00:29N 26°06' W 080°07'0 0.0
2018-Jun-19 23:59N 26°06' W 080°07'0 0.0
2018-Jun-19 23:29N 26°06' W 080°07'0 0.0
2018-Jun-19 22:59N 26°06' W 080°07'0 0.0
2018-Jun-19 22:29N 26°06' W 080°07'0 0.0
2018-Jun-19 21:59N 26°06' W 080°07'0 0.0
2018-Jun-19 21:29N 26°06' W 080°07'0 0.0
2018-Jun-19 20:59N 26°06' W 080°07'0 0.0
2018-Jun-19 20:29N 26°06' W 080°07'0 0.0
2018-Jun-19 19:59N 26°06' W 080°07'0 0.0
2018-Jun-19 19:29N 26°06' W 080°07'0 0.0
2018-Jun-19 18:59N 26°06' W 080°07'0 0.0
2018-Jun-19 18:20N 26°06' W 080°07'0 0.2
2018-Jun-19 18:00N 26°06' W 080°07'0 1.0
2018-Jun-19 17:30N 26°06' W 080°07'4 7.2
2018-Jun-19 17:00N 26°06' W 080°03'4 7.9
2018-Jun-19 16:30N 26°09' W 079°60'3 5.4
2018-Jun-19 16:00N 26°11' W 079°59'1 2.0
2018-Jun-19 15:30N 26°10' W 079°59'1 2.1
2018-Jun-19 15:00N 26°09' W 079°59'1 2.3
2018-Jun-19 14:30N 26°08' W 079°59'1 2.9
2018-Jun-19 14:00N 26°07' W 079°59'2 3.5
2018-Jun-19 13:30N 26°07' W 080°01'2 4.2
2018-Jun-19 13:00N 26°07' W 080°03'4 7.3
2018-Jun-19 12:30N 26°06' W 079°59'1 2.3
2018-Jun-19 12:00N 26°04' W 079°59'1 2.6
2018-Jun-19 11:30N 26°03' W 079°59'1 3.0
2018-Jun-19 11:00N 26°02' W 079°60'3 5.4
2018-Jun-19 10:30N 25°59' W 079°60'4 7.8
2018-Jun-19 10:00N 25°55' W 079°59'3 6.8
2018-Jun-19 09:30N 25°52' W 079°58'612.3
2018-Jun-19 09:00N 25°46' W 079°57'715.0
2018-Jun-19 08:30N 25°38' W 079°57'714.8
2018-Jun-19 08:00N 25°31' W 079°58'714.8
2018-Jun-19 07:30N 25°24' W 079°59'814.8
2018-Jun-19 06:58N 25°16' W 080°00'  
2018-Jun-16 05:17N 29°25' W 093°41'4 9.4
2018-Jun-16 04:51N 29°29' W 093°40'412.0
2018-Jun-16 04:30N 29°32' W 093°44'611.9
2018-Jun-16 04:00N 29°36' W 093°48'612.7
2018-Jun-16 03:30N 29°42' W 093°51'5 9.9
2018-Jun-16 03:01N 29°46' W 093°55'4 8.8
2018-Jun-16 02:30N 29°50' W 093°58'3 7.0
2018-Jun-16 02:00N 29°53' W 093°56'4 7.9
2018-Jun-16 01:31N 29°56' W 093°53'3 6.4
2018-Jun-16 01:01N 29°59' W 093°52'4 7.5
2018-Jun-16 00:30N 29°60' W 093°56'3 5.3
2018-Jun-16 00:01N 30°01' W 093°59'3 5.9
2018-Jun-15 23:31N 30°02' W 094°02'1 1.1
2018-Jun-15 23:00N 30°02' W 094°02'0 0.0
2018-Jun-15 22:30N 30°02' W 094°02'0 0.0
2018-Jun-15 21:57N 30°02' W 094°02'0 0.0
2018-Jun-15 21:24N 30°02' W 094°02'0 0.0
2018-Jun-15 21:00N 30°02' W 094°02'0 0.0
2018-Jun-15 20:30N 30°02' W 094°02'0 0.0
2018-Jun-15 20:00N 30°02' W 094°02'0 0.0
2018-Jun-15 19:30N 30°02' W 094°02'0 0.0
2018-Jun-15 19:00N 30°02' W 094°02'0 0.0
2018-Jun-15 18:27N 30°02' W 094°02'0 0.0
2018-Jun-15 18:00N 30°02' W 094°02'0 0.0
2018-Jun-15 17:30N 30°02' W 094°02'0 0.0
2018-Jun-15 17:00N 30°02' W 094°02'0 0.0
2018-Jun-15 16:27N 30°02' W 094°02'0 0.0
2018-Jun-15 16:00N 30°02' W 094°02'0 0.0
2018-Jun-15 15:27N 30°02' W 094°02'0 0.0
2018-Jun-15 15:00N 30°02' W 094°02'0 0.0
2018-Jun-15 14:30N 30°02' W 094°02'0 0.0
2018-Jun-15 14:00N 30°02' W 094°02'0 0.0
2018-Jun-15 13:30N 30°02' W 094°02'0 0.0
2018-Jun-15 13:00N 30°02' W 094°02'0 0.0
2018-Jun-15 12:30N 30°02' W 094°02'0 0.0
2018-Jun-15 11:57N 30°02' W 094°02'0 0.0
2018-Jun-15 11:30N 30°02' W 094°02'0 0.0
2018-Jun-15 11:00N 30°02' W 094°02'0 0.0
2018-Jun-15 10:30N 30°02' W 094°02'0 0.0
2018-Jun-15 09:54N 30°02' W 094°02'0 0.0
2018-Jun-15 09:24N 30°02' W 094°02'0 0.0
2018-Jun-15 08:57N 30°02' W 094°02'0 0.0
2018-Jun-15 08:30N 30°02' W 094°02'0 0.0
2018-Jun-15 08:00N 30°02' W 094°02'0 0.0
2018-Jun-15 07:27N 30°02' W 094°02'0 0.0
2018-Jun-15 06:57N 30°02' W 094°02'0 0.0
2018-Jun-15 06:21N 30°02' W 094°02'0 0.0
2018-Jun-15 06:00N 30°02' W 094°02'0 0.0
2018-Jun-15 05:30N 30°02' W 094°02'0 0.0
2018-Jun-15 05:00N 30°02' W 094°02'0 0.0
2018-Jun-15 04:30N 30°02' W 094°02'0 0.0
2018-Jun-15 04:00N 30°02' W 094°02'0 0.0
2018-Jun-15 03:30N 30°02' W 094°02'0 0.0
2018-Jun-15 03:00N 30°02' W 094°02'0 0.0
2018-Jun-15 02:30N 30°02' W 094°02'0 0.0
2018-Jun-15 01:54N 30°02' W 094°02'0 0.0
2018-Jun-15 01:27N 30°02' W 094°02'0 0.0
2018-Jun-15 01:00N 30°02' W 094°02'0 0.0
2018-Jun-15 00:24N 30°02' W 094°02'0 0.0
2018-Jun-15 00:00N 30°02' W 094°02'0 0.0
2018-Jun-14 23:30N 30°02' W 094°02'0 0.0
2018-Jun-14 23:00N 30°02' W 094°02'0 0.0
2018-Jun-14 22:24N 30°02' W 094°02'0 0.0
2018-Jun-14 21:57N 30°02' W 094°02'0 0.0
2018-Jun-14 21:24N 30°02' W 094°02'0 0.0
2018-Jun-14 21:00N 30°02' W 094°02'0 0.0
2018-Jun-14 20:30N 30°02' W 094°02'0 0.0
2018-Jun-14 20:00N 30°02' W 094°02'0 0.0
2018-Jun-14 19:27N 30°02' W 094°02'0 0.0
2018-Jun-14 19:00N 30°02' W 094°02'0 0.0
2018-Jun-14 18:27N 30°02' W 094°02'0 0.0
2018-Jun-14 18:00N 30°02' W 094°02'0 0.0
2018-Jun-14 17:27N 30°02' W 094°02'0 0.0
2018-Jun-14 16:54N 30°02' W 094°02'0 0.0
2018-Jun-14 16:30N 30°02' W 094°02'0 0.0
2018-Jun-14 16:00N 30°02' W 094°02'0 0.0
2018-Jun-14 15:30N 30°02' W 094°02'0 0.0
2018-Jun-14 15:00N 30°02' W 094°02'0 0.0
2018-Jun-14 14:30N 30°02' W 094°02'0 0.0
2018-Jun-14 14:00N 30°02' W 094°02'0 0.0
2018-Jun-14 13:30N 30°02' W 094°02'0 0.0
2018-Jun-14 13:00N 30°02' W 094°02'0 0.0
2018-Jun-14 12:30N 30°02' W 094°02'0 0.0
2018-Jun-14 11:57N 30°02' W 094°02'0 0.0
2018-Jun-14 11:27N 30°02' W 094°02'0 0.0
2018-Jun-14 10:57N 30°02' W 094°02'0 0.0
2018-Jun-14 10:27N 30°02' W 094°02'0 0.0
2018-Jun-14 10:00N 30°02' W 094°02'0 0.0
2018-Jun-14 09:30N 30°02' W 094°02'0 0.0
2018-Jun-14 09:00N 30°02' W 094°02'0 0.0
2018-Jun-14 08:30N 30°02' W 094°02'0 0.0
2018-Jun-14 07:54N 30°02' W 094°02'0 0.0
2018-Jun-14 07:30N 30°02' W 094°02'0 0.0
2018-Jun-14 06:57N 30°02' W 094°02'0 0.0
2018-Jun-14 06:18N 30°02' W 094°02'0 0.0
2018-Jun-14 06:00N 30°02' W 094°02'0 0.0
2018-Jun-14 05:30N 30°02' W 094°02'0 0.0
2018-Jun-14 04:57N 30°02' W 094°02'0 0.0
2018-Jun-14 04:27N 30°02' W 094°02'0 0.0
2018-Jun-14 04:00N 30°02' W 094°02'0 0.0
2018-Jun-14 03:27N 30°02' W 094°02'0 0.0
2018-Jun-14 02:57N 30°02' W 094°02'0 0.0
2018-Jun-14 02:27N 30°02' W 094°02'0 0.0
2018-Jun-14 02:00N 30°02' W 094°02'1 1.5
2018-Jun-14 01:30N 30°01' W 094°02'3 6.0
2018-Jun-14 01:00N 30°01' W 093°59'3 5.4
2018-Jun-14 00:30N 29°59' W 093°56'4 7.3
2018-Jun-14 00:00N 29°59' W 093°52'4 7.8
2018-Jun-13 23:30N 29°55' W 093°53'4 8.5
2018-Jun-13 23:00N 29°52' W 093°56'3 6.3
2018-Jun-13 22:30N 29°49' W 093°57'4 8.7
2018-Jun-13 22:00N 29°46' W 093°54'510.3
2018-Jun-13 21:30N 29°41' W 093°50'712.9
2018-Jun-13 20:59N 29°35' W 093°47'4 8.2
2018-Jun-13 20:30N 29°34' W 093°43'0 0.3
2018-Jun-13 19:49N 29°34' W 093°43'0 0.0
2018-Jun-13 19:24N 29°34' W 093°43'0 0.0
2018-Jun-13 19:00N 29°34' W 093°43'0 0.0
2018-Jun-13 18:31N 29°34' W 093°43'0 0.0
2018-Jun-13 17:51N 29°34' W 093°43'0 0.0
2018-Jun-13 17:21N 29°34' W 093°43'0 0.0
2018-Jun-13 16:54N 29°34' W 093°43'0 0.0
2018-Jun-13 16:30N 29°34' W 093°43'0 0.0
2018-Jun-13 15:54N 29°34' W 093°43'0 0.0
2018-Jun-13 15:30N 29°34' W 093°43'0 0.0
2018-Jun-13 14:36N 29°34' W 093°43'0 0.1
2018-Jun-13 14:30N 29°34' W 093°43'0 0.0
2018-Jun-13 14:00N 29°34' W 093°43'0 0.0
2018-Jun-13 13:30N 29°34' W 093°43'0 0.1
2018-Jun-13 13:00N 29°34' W 093°43'2 3.0
2018-Jun-13 12:30N 29°32' W 093°42'611.4
2018-Jun-13 12:00N 29°27' W 093°40'510.2
2018-Jun-13 11:28N 29°22' W 093°40'  
Track history (hours):
 
Tides and Currents Weather Stations Pressure Air Temp Water Temp Dewpoint Dewpoint Depression Visibility Wind Speed Wind Dir Waves Ship Positions

Texas

Owner: Crowley Petroleum Services, Inc., Jacksonville, FL. More information available from US FCC via Universal Licensing System and Coast Guard Vessel Documentation Center.

Last reported at 2018-Jun-20 22:20 UTC. Time now 2018-Jun-20 22:44 UTC.
Position N 26°06' W 080°07'.

Length 183 m; draft 8.5 m.

Type: Tanker. MMSI: 369037000.

Date/timePositionNaut miles runAvg speedWind from/ knotsBaromVisibWave heightAir tempDewpointWater temp
2018-Jun-20 22:20N 26°06' W 080°07'0 0.0
2018-Jun-20 21:53N 26°06' W 080°07'0 0.0
2018-Jun-20 21:23N 26°06' W 080°07'0 0.0
2018-Jun-20 20:53N 26°06' W 080°07'0 0.0
2018-Jun-20 20:23N 26°06' W 080°07'0 0.0
2018-Jun-20 19:53N 26°06' W 080°07'0 0.0
2018-Jun-20 19:23N 26°06' W 080°07'0 0.0
2018-Jun-20 18:53N 26°06' W 080°07'0 0.0
2018-Jun-20 18:26N 26°06' W 080°07'0 0.0
2018-Jun-20 17:56N 26°06' W 080°07'0 0.0
2018-Jun-20 17:26N 26°06' W 080°07'0 0.0
2018-Jun-20 16:59N 26°06' W 080°07'0 0.0
2018-Jun-20 16:26N 26°06' W 080°07'0 0.0
2018-Jun-20 15:59N 26°06' W 080°07'0 0.0
2018-Jun-20 15:29N 26°06' W 080°07'0 0.0
2018-Jun-20 14:59N 26°06' W 080°07'0 0.0
2018-Jun-20 14:26N 26°06' W 080°07'0 0.0
2018-Jun-20 13:59N 26°06' W 080°07'0 0.0
2018-Jun-20 13:29N 26°06' W 080°07'0 0.0
2018-Jun-20 12:59N 26°06' W 080°07'0 0.0
2018-Jun-20 12:26N 26°06' W 080°07'0 0.0
2018-Jun-20 11:59N 26°06' W 080°07'0 0.0
2018-Jun-20 11:29N 26°06' W 080°07'0 0.0
2018-Jun-20 10:59N 26°06' W 080°07'0 0.0
2018-Jun-20 10:29N 26°06' W 080°07'0 0.0
2018-Jun-20 09:50N 26°06' W 080°07'0 0.0
2018-Jun-20 09:29N 26°06' W 080°07'0 0.0
2018-Jun-20 08:50N 26°06' W 080°07'0 0.0
2018-Jun-20 08:20N 26°06' W 080°07'0 0.0
2018-Jun-20 07:50N 26°06' W 080°07'0 0.0
2018-Jun-20 07:23N 26°06' W 080°07'0 0.0
2018-Jun-20 06:53N 26°06' W 080°07'0 0.0
2018-Jun-20 06:23N 26°06' W 080°07'0 0.0
2018-Jun-20 05:53N 26°06' W 080°07'0 0.0
2018-Jun-20 05:23N 26°06' W 080°07'0 0.0
2018-Jun-20 04:53N 26°06' W 080°07'0 0.0
2018-Jun-20 04:23N 26°06' W 080°07'0 0.0
2018-Jun-20 03:56N 26°06' W 080°07'0 0.0
2018-Jun-20 03:26N 26°06' W 080°07'0 0.0
2018-Jun-20 02:56N 26°06' W 080°07'0 0.0
2018-Jun-20 02:23N 26°06' W 080°07'0 0.0
2018-Jun-20 01:56N 26°06' W 080°07'0 0.0
2018-Jun-20 01:29N 26°06' W 080°07'0 0.0
2018-Jun-20 00:56N 26°06' W 080°07'0 0.0
2018-Jun-20 00:29N 26°06' W 080°07'0 0.0
2018-Jun-19 23:59N 26°06' W 080°07'0 0.0
2018-Jun-19 23:29N 26°06' W 080°07'0 0.0
2018-Jun-19 22:59N 26°06' W 080°07'0 0.0
2018-Jun-19 22:29N 26°06' W 080°07'0 0.0
2018-Jun-19 21:59N 26°06' W 080°07'0 0.0
2018-Jun-19 21:29N 26°06' W 080°07'0 0.0
2018-Jun-19 20:59N 26°06' W 080°07'0 0.0
2018-Jun-19 20:29N 26°06' W 080°07'0 0.0
2018-Jun-19 19:59N 26°06' W 080°07'0 0.0
2018-Jun-19 19:29N 26°06' W 080°07'0 0.0
2018-Jun-19 18:59N 26°06' W 080°07'0 0.0
2018-Jun-19 18:20N 26°06' W 080°07'0 0.2
2018-Jun-19 18:00N 26°06' W 080°07'0 1.0
2018-Jun-19 17:30N 26°06' W 080°07'4 7.2
2018-Jun-19 17:00N 26°06' W 080°03'4 7.9
2018-Jun-19 16:30N 26°09' W 079°60'3 5.4
2018-Jun-19 16:00N 26°11' W 079°59'1 2.0
2018-Jun-19 15:30N 26°10' W 079°59'1 2.1
2018-Jun-19 15:00N 26°09' W 079°59'1 2.3
2018-Jun-19 14:30N 26°08' W 079°59'1 2.9
2018-Jun-19 14:00N 26°07' W 079°59'2 3.5
2018-Jun-19 13:30N 26°07' W 080°01'2 4.2
2018-Jun-19 13:00N 26°07' W 080°03'4 7.3
2018-Jun-19 12:30N 26°06' W 079°59'1 2.3
2018-Jun-19 12:00N 26°04' W 079°59'1 2.6
2018-Jun-19 11:30N 26°03' W 079°59'1 3.0
2018-Jun-19 11:00N 26°02' W 079°60'3 5.4
2018-Jun-19 10:30N 25°59' W 079°60'4 7.8
2018-Jun-19 10:00N 25°55' W 079°59'3 6.8
2018-Jun-19 09:30N 25°52' W 079°58'612.3
2018-Jun-19 09:00N 25°46' W 079°57'715.0
2018-Jun-19 08:30N 25°38' W 079°57'714.8
2018-Jun-19 08:00N 25°31' W 079°58'714.8
2018-Jun-19 07:30N 25°24' W 079°59'814.8
2018-Jun-19 06:58N 25°16' W 080°00'  
2018-Jun-16 05:17N 29°25' W 093°41'4 9.4
2018-Jun-16 04:51N 29°29' W 093°40'412.0
2018-Jun-16 04:30N 29°32' W 093°44'611.9
2018-Jun-16 04:00N 29°36' W 093°48'612.7
2018-Jun-16 03:30N 29°42' W 093°51'5 9.9
2018-Jun-16 03:01N 29°46' W 093°55'4 8.8
2018-Jun-16 02:30N 29°50' W 093°58'3 7.0
2018-Jun-16 02:00N 29°53' W 093°56'4 7.9
2018-Jun-16 01:31N 29°56' W 093°53'3 6.4
2018-Jun-16 01:01N 29°59' W 093°52'4 7.5
2018-Jun-16 00:30N 29°60' W 093°56'3 5.3
2018-Jun-16 00:01N 30°01' W 093°59'3 5.9
2018-Jun-15 23:31N 30°02' W 094°02'1 1.1
2018-Jun-15 23:00N 30°02' W 094°02'0 0.0
2018-Jun-15 22:30N 30°02' W 094°02'0 0.0
2018-Jun-15 21:57N 30°02' W 094°02'0 0.0
2018-Jun-15 21:24N 30°02' W 094°02'0 0.0
2018-Jun-15 21:00N 30°02' W 094°02'0 0.0
2018-Jun-15 20:30N 30°02' W 094°02'0 0.0
2018-Jun-15 20:00N 30°02' W 094°02'0 0.0
2018-Jun-15 19:30N 30°02' W 094°02'0 0.0
2018-Jun-15 19:00N 30°02' W 094°02'0 0.0
2018-Jun-15 18:27N 30°02' W 094°02'0 0.0
2018-Jun-15 18:00N 30°02' W 094°02'0 0.0
2018-Jun-15 17:30N 30°02' W 094°02'0 0.0
2018-Jun-15 17:00N 30°02' W 094°02'0 0.0
2018-Jun-15 16:27N 30°02' W 094°02'0 0.0
2018-Jun-15 16:00N 30°02' W 094°02'0 0.0
2018-Jun-15 15:27N 30°02' W 094°02'0 0.0
2018-Jun-15 15:00N 30°02' W 094°02'0 0.0
2018-Jun-15 14:30N 30°02' W 094°02'0 0.0
2018-Jun-15 14:00N 30°02' W 094°02'0 0.0
2018-Jun-15 13:30N 30°02' W 094°02'0 0.0
2018-Jun-15 13:00N 30°02' W 094°02'0 0.0
2018-Jun-15 12:30N 30°02' W 094°02'0 0.0
2018-Jun-15 11:57N 30°02' W 094°02'0 0.0
2018-Jun-15 11:30N 30°02' W 094°02'0 0.0
2018-Jun-15 11:00N 30°02' W 094°02'0 0.0
2018-Jun-15 10:30N 30°02' W 094°02'0 0.0
2018-Jun-15 09:54N 30°02' W 094°02'0 0.0
2018-Jun-15 09:24N 30°02' W 094°02'0 0.0
2018-Jun-15 08:57N 30°02' W 094°02'0 0.0
2018-Jun-15 08:30N 30°02' W 094°02'0 0.0
2018-Jun-15 08:00N 30°02' W 094°02'0 0.0
2018-Jun-15 07:27N 30°02' W 094°02'0 0.0
2018-Jun-15 06:57N 30°02' W 094°02'0 0.0
2018-Jun-15 06:21N 30°02' W 094°02'0 0.0
2018-Jun-15 06:00N 30°02' W 094°02'0 0.0
2018-Jun-15 05:30N 30°02' W 094°02'0 0.0
2018-Jun-15 05:00N 30°02' W 094°02'0 0.0
2018-Jun-15 04:30N 30°02' W 094°02'0 0.0
2018-Jun-15 04:00N 30°02' W 094°02'0 0.0
2018-Jun-15 03:30N 30°02' W 094°02'0 0.0
2018-Jun-15 03:00N 30°02' W 094°02'0 0.0
2018-Jun-15 02:30N 30°02' W 094°02'0 0.0
2018-Jun-15 01:54N 30°02' W 094°02'0 0.0
2018-Jun-15 01:27N 30°02' W 094°02'0 0.0
2018-Jun-15 01:00N 30°02' W 094°02'0 0.0
2018-Jun-15 00:24N 30°02' W 094°02'0 0.0
2018-Jun-15 00:00N 30°02' W 094°02'0 0.0
2018-Jun-14 23:30N 30°02' W 094°02'0 0.0
2018-Jun-14 23:00N 30°02' W 094°02'0 0.0
2018-Jun-14 22:24N 30°02' W 094°02'0 0.0
2018-Jun-14 21:57N 30°02' W 094°02'0 0.0
2018-Jun-14 21:24N 30°02' W 094°02'0 0.0
2018-Jun-14 21:00N 30°02' W 094°02'0 0.0
2018-Jun-14 20:30N 30°02' W 094°02'0 0.0
2018-Jun-14 20:00N 30°02' W 094°02'0 0.0
2018-Jun-14 19:27N 30°02' W 094°02'0 0.0
2018-Jun-14 19:00N 30°02' W 094°02'0 0.0
2018-Jun-14 18:27N 30°02' W 094°02'0 0.0
2018-Jun-14 18:00N 30°02' W 094°02'0 0.0
2018-Jun-14 17:27N 30°02' W 094°02'0 0.0
2018-Jun-14 16:54N 30°02' W 094°02'0 0.0
2018-Jun-14 16:30N 30°02' W 094°02'0 0.0
2018-Jun-14 16:00N 30°02' W 094°02'0 0.0
2018-Jun-14 15:30N 30°02' W 094°02'0 0.0
2018-Jun-14 15:00N 30°02' W 094°02'0 0.0
2018-Jun-14 14:30N 30°02' W 094°02'0 0.0
2018-Jun-14 14:00N 30°02' W 094°02'0 0.0
2018-Jun-14 13:30N 30°02' W 094°02'0 0.0
2018-Jun-14 13:00N 30°02' W 094°02'0 0.0
2018-Jun-14 12:30N 30°02' W 094°02'0 0.0
2018-Jun-14 11:57N 30°02' W 094°02'0 0.0
2018-Jun-14 11:27N 30°02' W 094°02'0 0.0
2018-Jun-14 10:57N 30°02' W 094°02'0 0.0
2018-Jun-14 10:27N 30°02' W 094°02'0 0.0
2018-Jun-14 10:00N 30°02' W 094°02'0 0.0
2018-Jun-14 09:30N 30°02' W 094°02'0 0.0
2018-Jun-14 09:00N 30°02' W 094°02'0 0.0
2018-Jun-14 08:30N 30°02' W 094°02'0 0.0
2018-Jun-14 07:54N 30°02' W 094°02'0 0.0
2018-Jun-14 07:30N 30°02' W 094°02'0 0.0
2018-Jun-14 06:57N 30°02' W 094°02'0 0.0
2018-Jun-14 06:18N 30°02' W 094°02'0 0.0
2018-Jun-14 06:00N 30°02' W 094°02'0 0.0
2018-Jun-14 05:30N 30°02' W 094°02'0 0.0
2018-Jun-14 04:57N 30°02' W 094°02'0 0.0
2018-Jun-14 04:27N 30°02' W 094°02'0 0.0
2018-Jun-14 04:00N 30°02' W 094°02'0 0.0
2018-Jun-14 03:27N 30°02' W 094°02'0 0.0
2018-Jun-14 02:57N 30°02' W 094°02'0 0.0
2018-Jun-14 02:27N 30°02' W 094°02'0 0.0
2018-Jun-14 02:00N 30°02' W 094°02'1 1.5
2018-Jun-14 01:30N 30°01' W 094°02'3 6.0
2018-Jun-14 01:00N 30°01' W 093°59'3 5.4
2018-Jun-14 00:30N 29°59' W 093°56'4 7.3
2018-Jun-14 00:00N 29°59' W 093°52'4 7.8
2018-Jun-13 23:30N 29°55' W 093°53'4 8.5
2018-Jun-13 23:00N 29°52' W 093°56'3 6.3
2018-Jun-13 22:30N 29°49' W 093°57'4 8.7
2018-Jun-13 22:00N 29°46' W 093°54'510.3
2018-Jun-13 21:30N 29°41' W 093°50'712.9
2018-Jun-13 20:59N 29°35' W 093°47'4 8.2
2018-Jun-13 20:30N 29°34' W 093°43'0 0.3
2018-Jun-13 19:49N 29°34' W 093°43'0 0.0
2018-Jun-13 19:24N 29°34' W 093°43'0 0.0
2018-Jun-13 19:00N 29°34' W 093°43'0 0.0
2018-Jun-13 18:31N 29°34' W 093°43'0 0.0
2018-Jun-13 17:51N 29°34' W 093°43'0 0.0
2018-Jun-13 17:21N 29°34' W 093°43'0 0.0
2018-Jun-13 16:54N 29°34' W 093°43'0 0.0
2018-Jun-13 16:30N 29°34' W 093°43'0 0.0
2018-Jun-13 15:54N 29°34' W 093°43'0 0.0
2018-Jun-13 15:30N 29°34' W 093°43'0 0.0
2018-Jun-13 14:36N 29°34' W 093°43'0 0.1
2018-Jun-13 14:30N 29°34' W 093°43'0 0.0
2018-Jun-13 14:00N 29°34' W 093°43'0 0.0
2018-Jun-13 13:30N 29°34' W 093°43'0 0.1
2018-Jun-13 13:00N 29°34' W 093°43'2 3.0
2018-Jun-13 12:30N 29°32' W 093°42'611.4
2018-Jun-13 12:00N 29°27' W 093°40'510.2
2018-Jun-13 11:28N 29°22' W 093°40'  

Dump ship's entire track history